createdAt,value
2022-12-18T00:00:06.943Z,96.24
2022-12-18T00:02:35.001Z,96.19
2022-12-18T00:05:03.072Z,96.17
2022-12-18T00:07:31.035Z,96.17
2022-12-18T00:10:00.370Z,96.13
2022-12-18T00:12:30.006Z,96.07
2022-12-18T00:14:58.342Z,96.08
2022-12-18T00:17:26.335Z,96.14
2022-12-18T00:19:54.317Z,96.10
2022-12-18T00:22:22.380Z,96.17
2022-12-18T00:24:50.460Z,96.19
2022-12-18T00:27:19.789Z,96.21
2022-12-18T00:29:47.795Z,96.24
2022-12-18T00:32:16.002Z,96.23
2022-12-18T00:34:43.976Z,96.24
2022-12-18T00:37:14.465Z,96.28
2022-12-18T00:39:46.405Z,96.28
2022-12-18T00:42:32.194Z,96.35
2022-12-18T00:45:01.519Z,96.38
2022-12-18T00:47:29.469Z,96.41
2022-12-18T00:49:57.440Z,96.43
2022-12-18T00:52:25.422Z,96.46
2022-12-18T00:54:53.468Z,96.49
2022-12-18T00:57:21.505Z,96.45
2022-12-18T00:59:50.229Z,96.49
2022-12-18T01:02:19.761Z,96.52
2022-12-18T01:04:47.893Z,96.53
2022-12-18T01:07:15.879Z,96.53
2022-12-18T01:09:43.873Z,96.51
2022-12-18T01:12:11.913Z,96.52
2022-12-18T01:14:39.953Z,96.56
2022-12-18T01:17:07.867Z,96.61
2022-12-18T01:19:37.192Z,96.58
2022-12-18T01:22:05.303Z,96.56
2022-12-18T01:24:33.270Z,96.58
2022-12-18T01:27:01.319Z,96.60
2022-12-18T01:29:29.807Z,96.58
2022-12-18T01:31:58.368Z,96.53
2022-12-18T01:34:26.375Z,96.56
2022-12-18T01:36:55.845Z,96.59
2022-12-18T01:39:23.806Z,96.58
2022-12-18T01:42:04.074Z,96.61
2022-12-18T01:44:57.118Z,96.65
2022-12-18T01:47:29.680Z,96.60
2022-12-18T01:49:58.977Z,96.58
2022-12-18T01:52:30.656Z,96.57
2022-12-18T01:54:58.642Z,96.61
2022-12-18T01:57:27.212Z,96.56
2022-12-18T01:59:56.339Z,96.56
2022-12-18T02:02:24.725Z,96.47
2022-12-18T02:04:52.776Z,96.43
2022-12-18T02:07:26.884Z,96.44
2022-12-18T02:10:01.292Z,96.44
2022-12-18T02:12:34.700Z,96.44
2022-12-18T02:15:09.488Z,96.48
2022-12-18T02:17:39.334Z,96.49
2022-12-18T02:20:15.876Z,96.48
2022-12-18T02:22:51.227Z,96.51
2022-12-18T02:25:32.056Z,96.47
2022-12-18T02:28:02.549Z,96.39
2022-12-18T02:30:33.521Z,96.41
2022-12-18T02:33:03.249Z,96.41
2022-12-18T02:35:32.631Z,96.40
2022-12-18T02:38:00.888Z,96.37
2022-12-18T02:40:29.879Z,96.34
2022-12-18T02:43:08.528Z,96.26
2022-12-18T02:45:36.587Z,96.25
2022-12-18T02:48:04.893Z,96.30
2022-12-18T02:50:38.208Z,96.33
2022-12-18T02:53:13.138Z,96.29
2022-12-18T02:55:51.456Z,96.25
2022-12-18T02:58:23.196Z,96.30
2022-12-18T03:00:53.569Z,96.33
2022-12-18T03:03:26.700Z,96.26
2022-12-18T03:05:55.808Z,96.25
2022-12-18T03:08:25.238Z,96.26
2022-12-18T03:10:57.969Z,96.24
2022-12-18T03:13:32.091Z,96.20
2022-12-18T03:16:01.383Z,96.21
2022-12-18T03:18:33.143Z,96.19
2022-12-18T03:21:01.465Z,96.20
2022-12-18T03:23:32.711Z,96.18
2022-12-18T03:26:07.411Z,96.22
2022-12-18T03:28:40.014Z,96.23
2022-12-18T03:31:10.113Z,96.14
2022-12-18T03:33:41.542Z,96.16
2022-12-18T03:36:10.063Z,96.20
2022-12-18T03:38:38.156Z,96.25
2022-12-18T03:41:11.026Z,96.27
2022-12-18T03:43:46.043Z,96.27
2022-12-18T03:46:17.878Z,96.33
2022-12-18T03:48:49.119Z,96.34
2022-12-18T03:51:22.689Z,96.39
2022-12-18T03:53:55.608Z,96.42
2022-12-18T03:56:24.885Z,96.43
2022-12-18T03:58:54.802Z,96.45
2022-12-18T04:01:26.929Z,96.36
2022-12-18T04:03:55.323Z,96.33
2022-12-18T04:06:23.678Z,96.30
2022-12-18T04:08:52.713Z,96.33
2022-12-18T04:11:20.744Z,96.40
2022-12-18T04:13:48.891Z,96.38
2022-12-18T04:16:18.269Z,96.41
2022-12-18T04:18:46.345Z,96.33
2022-12-18T04:21:14.335Z,96.33
2022-12-18T04:23:42.615Z,96.33
2022-12-18T04:26:11.256Z,96.40
2022-12-18T04:28:39.332Z,96.44
2022-12-18T04:31:07.398Z,96.45
2022-12-18T04:33:37.152Z,96.39
2022-12-18T04:36:05.945Z,96.45
2022-12-18T04:38:34.432Z,96.45
2022-12-18T04:41:02.624Z,96.46
2022-12-18T04:43:30.708Z,96.43
2022-12-18T04:46:04.226Z,96.47
2022-12-18T04:48:32.221Z,96.46
2022-12-18T04:51:01.649Z,96.48
2022-12-18T04:53:29.625Z,96.53
2022-12-18T04:56:05.765Z,96.53
2022-12-18T04:58:33.950Z,96.55
2022-12-18T05:01:02.244Z,96.50
2022-12-18T05:03:30.269Z,96.52
2022-12-18T05:05:58.326Z,96.57
2022-12-18T05:08:28.180Z,96.57
2022-12-18T05:11:00.669Z,96.53
2022-12-18T05:13:28.695Z,96.52
2022-12-18T05:15:57.456Z,96.48
2022-12-18T05:18:26.453Z,96.53
2022-12-18T05:20:55.103Z,96.48
2022-12-18T05:23:24.247Z,96.47
2022-12-18T05:25:54.309Z,96.54
2022-12-18T05:28:22.441Z,96.52
2022-12-18T05:30:51.661Z,96.55
2022-12-18T05:33:19.877Z,96.54
2022-12-18T05:35:52.340Z,96.58
2022-12-18T05:38:20.329Z,96.60
2022-12-18T05:40:49.547Z,96.57
2022-12-18T05:43:21.625Z,96.56
2022-12-18T05:45:50.455Z,96.54
2022-12-18T05:48:18.814Z,96.51
2022-12-18T05:50:47.859Z,96.53
2022-12-18T05:53:16.769Z,96.52
2022-12-18T05:55:45.505Z,96.51
2022-12-18T05:58:14.742Z,96.62
2022-12-18T06:00:45.814Z,96.61
2022-12-18T06:03:14.777Z,96.62
2022-12-18T06:05:44.576Z,96.61
2022-12-18T06:08:12.849Z,96.60
2022-12-18T06:10:41.058Z,96.57
2022-12-18T06:13:09.378Z,96.58
2022-12-18T06:15:38.536Z,96.62
2022-12-18T06:18:07.891Z,96.66
2022-12-18T06:20:37.545Z,96.70
2022-12-18T06:23:05.557Z,96.72
2022-12-18T06:25:34.024Z,96.73
2022-12-18T06:28:02.067Z,96.74
2022-12-18T06:30:30.161Z,96.75
2022-12-18T06:32:58.164Z,96.74
2022-12-18T06:35:27.638Z,96.69
2022-12-18T06:37:55.687Z,96.75
2022-12-18T06:40:23.691Z,96.75
2022-12-18T06:42:52.168Z,96.77
2022-12-18T06:45:20.854Z,96.78
2022-12-18T06:47:48.823Z,96.86
2022-12-18T06:50:16.850Z,96.85
2022-12-18T06:52:46.217Z,96.84
2022-12-18T06:55:14.804Z,96.85
2022-12-18T06:57:42.795Z,96.87
2022-12-18T07:00:11.577Z,96.86
2022-12-18T07:02:39.730Z,96.83
2022-12-18T07:05:10.880Z,96.84
2022-12-18T07:07:39.308Z,96.84
2022-12-18T07:10:09.222Z,96.79
2022-12-18T07:12:37.363Z,96.83
2022-12-18T07:15:06.495Z,96.83
2022-12-18T07:17:34.522Z,96.82
2022-12-18T07:20:03.013Z,96.89
2022-12-18T07:22:31.302Z,96.89
2022-12-18T07:24:59.754Z,96.88
2022-12-18T07:27:29.451Z,96.91
2022-12-18T07:29:58.160Z,96.97
2022-12-18T07:32:26.123Z,96.90
2022-12-18T07:34:54.114Z,96.87
2022-12-18T07:37:22.090Z,96.88
2022-12-18T07:39:50.034Z,96.88
2022-12-18T07:42:35.844Z,96.92
2022-12-18T07:45:06.136Z,96.88
2022-12-18T07:47:36.533Z,96.89
2022-12-18T07:50:05.215Z,96.87
2022-12-18T07:52:33.304Z,96.92
2022-12-18T07:55:01.490Z,96.92
2022-12-18T08:00:19.513Z,96.87
2022-12-18T08:02:49.413Z,96.89
2022-12-18T08:05:17.803Z,96.87
2022-12-18T08:07:45.903Z,96.87
2022-12-18T08:10:15.439Z,96.86
2022-12-18T08:12:43.509Z,96.84
2022-12-18T08:15:12.193Z,96.81
2022-12-18T08:17:41.512Z,96.78
2022-12-18T08:20:10.871Z,96.77
2022-12-18T08:22:40.409Z,96.76
2022-12-18T08:25:09.129Z,96.72
2022-12-18T08:27:37.134Z,96.73
2022-12-18T08:30:06.111Z,96.71
2022-12-18T08:32:35.426Z,96.68
2022-12-18T08:35:05.277Z,96.64
2022-12-18T08:37:33.462Z,96.65
2022-12-18T08:40:01.824Z,96.60
2022-12-18T08:42:47.384Z,96.61
2022-12-18T08:45:16.133Z,96.63
2022-12-18T08:47:44.497Z,96.58
2022-12-18T08:50:13.998Z,96.54
2022-12-18T08:52:42.006Z,96.59
2022-12-18T08:55:11.102Z,96.56
2022-12-18T08:57:39.125Z,96.46
2022-12-18T09:00:08.686Z,96.48
2022-12-18T09:02:36.867Z,96.48
2022-12-18T09:05:05.477Z,96.56
2022-12-18T09:07:34.846Z,96.53
2022-12-18T09:10:02.880Z,96.60
2022-12-18T09:12:30.971Z,96.62
2022-12-18T09:14:58.982Z,96.55
2022-12-18T09:17:27.228Z,96.56
2022-12-18T09:19:55.490Z,96.51
2022-12-18T09:22:23.618Z,96.44
2022-12-18T09:24:52.924Z,96.41
2022-12-18T09:27:20.944Z,96.40
2022-12-18T09:29:49.095Z,96.40
2022-12-18T09:32:22.164Z,96.36
2022-12-18T09:34:50.633Z,96.31
2022-12-18T09:37:18.767Z,96.44
2022-12-18T09:39:46.766Z,96.52
2022-12-18T09:42:22.285Z,96.56
2022-12-18T09:44:52.745Z,96.57
2022-12-18T09:47:23.957Z,96.50
2022-12-18T09:49:54.912Z,96.49
2022-12-18T09:52:26.994Z,96.47
2022-12-18T09:54:58.450Z,96.37
2022-12-18T09:57:27.951Z,96.40
2022-12-18T10:00:00.377Z,96.44
2022-12-18T10:02:29.069Z,96.45
2022-12-18T10:05:08.451Z,96.39
2022-12-18T10:07:47.326Z,96.49
2022-12-18T10:10:23.884Z,96.53
2022-12-18T10:13:04.243Z,96.54
2022-12-18T10:15:38.608Z,96.46
2022-12-18T10:18:21.713Z,96.44
2022-12-18T10:20:52.027Z,96.37
2022-12-18T10:23:26.294Z,96.29
2022-12-18T10:25:58.008Z,96.28
2022-12-18T10:28:27.857Z,96.18
2022-12-18T10:30:55.908Z,96.16
2022-12-18T10:33:26.188Z,96.15
2022-12-18T10:35:54.658Z,96.17
2022-12-18T10:38:25.088Z,96.09
2022-12-18T10:40:55.971Z,96.05
2022-12-18T10:43:27.553Z,96.13
2022-12-18T10:46:18.019Z,96.11
2022-12-18T10:48:57.125Z,96.03
2022-12-18T10:51:27.307Z,95.97
2022-12-18T10:54:01.783Z,95.93
2022-12-18T10:56:32.772Z,95.95
2022-12-18T10:59:05.924Z,96.00
2022-12-18T11:01:48.820Z,96.01
2022-12-18T11:04:20.373Z,96.01
2022-12-18T11:06:56.755Z,96.01
2022-12-18T11:09:26.674Z,95.97
2022-12-18T11:11:55.963Z,96.06
2022-12-18T11:14:26.644Z,96.12
2022-12-18T11:17:24.841Z,96.12
2022-12-18T11:19:44.387Z,96.16
2022-12-18T11:22:21.765Z,96.17
2022-12-18T11:25:29.588Z,96.19
2022-12-18T11:27:49.787Z,96.06
2022-12-18T11:30:25.484Z,96.01
2022-12-18T11:32:56.240Z,96.01
2022-12-18T11:35:32.260Z,96.00
2022-12-18T11:38:06.476Z,95.99
2022-12-18T11:40:41.113Z,95.97
2022-12-18T11:43:13.936Z,96.00
2022-12-18T11:45:49.360Z,96.04
2022-12-18T11:48:20.183Z,95.98
2022-12-18T11:50:51.791Z,95.94
2022-12-18T11:53:20.387Z,95.95
2022-12-18T11:55:56.870Z,95.93
2022-12-18T11:58:37.355Z,95.92
2022-12-18T12:01:16.044Z,95.90
2022-12-18T12:03:56.207Z,95.88
2022-12-18T12:06:28.464Z,95.84
2022-12-18T12:09:04.753Z,95.77
2022-12-18T12:11:39.079Z,95.75
2022-12-18T12:14:33.836Z,95.68
2022-12-18T12:17:06.266Z,95.58
2022-12-18T12:19:42.338Z,95.55
2022-12-18T12:22:16.200Z,95.47
2022-12-18T12:24:55.239Z,95.43
2022-12-18T12:27:30.220Z,95.33
2022-12-18T12:30:05.769Z,95.30
2022-12-18T12:32:51.757Z,95.31
2022-12-18T12:35:29.363Z,95.30
2022-12-18T12:38:06.510Z,95.32
2022-12-18T12:40:58.821Z,95.30
2022-12-18T12:43:30.045Z,95.28
2022-12-18T12:46:01.205Z,95.26
2022-12-18T12:48:37.550Z,95.22
2022-12-18T12:51:13.396Z,95.25
2022-12-18T12:53:42.607Z,95.22
2022-12-18T12:56:12.218Z,95.11
2022-12-18T12:58:47.233Z,95.05
2022-12-18T13:01:23.511Z,95.01
2022-12-18T13:04:00.271Z,94.95
2022-12-18T13:06:41.503Z,94.99
2022-12-18T13:09:12.748Z,94.97
2022-12-18T13:12:00.643Z,95.01
2022-12-18T13:14:31.664Z,95.01
2022-12-18T13:17:28.435Z,94.97
2022-12-18T13:20:10.899Z,94.98
2022-12-18T13:22:40.508Z,94.83
2022-12-18T13:25:37.358Z,94.79
2022-12-18T13:28:10.981Z,94.76
2022-12-18T13:31:00.157Z,94.78
2022-12-18T13:34:02.186Z,94.77
2022-12-18T13:36:34.838Z,94.75
2022-12-18T13:39:36.958Z,94.75
2022-12-18T13:42:54.559Z,94.74
2022-12-18T13:45:40.243Z,94.53
2022-12-18T13:48:17.896Z,94.54
2022-12-18T13:50:51.341Z,94.53
2022-12-18T13:53:23.719Z,94.50
2022-12-18T13:55:52.979Z,94.50
2022-12-18T13:58:21.355Z,94.55
2022-12-18T14:00:49.418Z,94.61
2022-12-18T14:03:22.656Z,94.67
2022-12-18T14:05:57.133Z,94.57
2022-12-18T14:08:28.090Z,94.64
2022-12-18T14:10:56.089Z,94.62
2022-12-18T14:13:27.144Z,94.59
2022-12-18T14:15:56.002Z,94.61
2022-12-18T14:18:26.142Z,94.61
2022-12-18T14:20:56.822Z,94.63
2022-12-18T14:23:34.719Z,94.65
2022-12-18T14:26:05.962Z,94.60
2022-12-18T14:28:34.428Z,94.58
2022-12-18T14:31:02.517Z,94.61
2022-12-18T14:33:30.731Z,94.68
2022-12-18T14:36:01.486Z,94.72
2022-12-18T14:38:33.081Z,94.54
2022-12-18T14:41:02.878Z,94.50
2022-12-18T14:43:33.457Z,94.54
2022-12-18T14:46:02.391Z,94.60
2022-12-18T14:48:39.658Z,94.67
2022-12-18T14:51:09.121Z,94.71
2022-12-18T14:53:40.854Z,94.77
2022-12-18T14:56:17.174Z,94.71
2022-12-18T14:58:53.885Z,94.67
2022-12-18T15:01:25.168Z,94.61
2022-12-18T15:03:54.182Z,94.56
2022-12-18T15:06:31.214Z,94.57
2022-12-18T15:09:02.288Z,94.60
2022-12-18T15:11:46.949Z,94.55
2022-12-18T15:14:35.700Z,94.64
2022-12-18T15:17:07.138Z,94.72
2022-12-18T15:19:39.477Z,94.78
2022-12-18T15:22:19.977Z,94.73
2022-12-18T15:24:49.734Z,94.63
2022-12-18T15:27:26.493Z,94.64
2022-12-18T15:30:22.858Z,94.51
2022-12-18T15:32:51.646Z,94.54
2022-12-18T15:35:22.255Z,94.55
2022-12-18T15:37:50.597Z,94.54
2022-12-18T15:40:23.369Z,94.62
2022-12-18T15:43:12.272Z,94.56
2022-12-18T15:45:40.467Z,94.56
2022-12-18T15:48:20.139Z,94.56
2022-12-18T15:50:48.300Z,94.55
2022-12-18T15:53:16.297Z,94.52
2022-12-18T15:56:03.594Z,94.44
2022-12-18T15:58:31.597Z,94.43
2022-12-18T16:01:00.997Z,94.44
2022-12-18T16:03:29.388Z,94.42
2022-12-18T16:05:59.277Z,94.45
2022-12-18T16:08:28.010Z,94.46
2022-12-18T16:10:57.771Z,94.42
2022-12-18T16:13:25.850Z,94.37
2022-12-18T16:15:53.991Z,94.33
2022-12-18T16:18:22.003Z,94.37
2022-12-18T16:20:50.102Z,94.30
2022-12-18T16:23:18.172Z,94.28
2022-12-18T16:25:46.327Z,94.28
2022-12-18T16:28:15.680Z,94.33
2022-12-18T16:30:43.744Z,94.37
2022-12-18T16:33:12.167Z,94.40
2022-12-18T16:35:40.170Z,94.39
2022-12-18T16:38:08.373Z,94.40
2022-12-18T16:40:56.351Z,94.40
2022-12-18T16:43:25.690Z,94.39
2022-12-18T16:45:53.704Z,94.37
2022-12-18T16:48:21.877Z,94.34
2022-12-18T16:50:49.880Z,94.36
2022-12-18T16:53:18.004Z,94.36
2022-12-18T16:55:46.486Z,94.34
2022-12-18T16:58:14.464Z,94.31
2022-12-18T17:00:43.782Z,94.31
2022-12-18T17:03:11.888Z,94.31
2022-12-18T17:05:40.305Z,94.28
2022-12-18T17:08:08.359Z,94.27
2022-12-18T17:10:36.717Z,94.21
2022-12-18T17:13:04.767Z,94.23
2022-12-18T17:15:36.101Z,94.24
2022-12-18T17:18:05.590Z,94.23
2022-12-18T17:20:33.730Z,94.27
2022-12-18T17:23:02.023Z,94.32
2022-12-18T17:25:30.984Z,94.35
2022-12-18T17:27:58.961Z,94.30
2022-12-18T17:30:27.366Z,94.32
2022-12-18T17:32:55.399Z,94.40
2022-12-18T17:35:24.775Z,94.41
2022-12-18T17:37:52.792Z,94.44
2022-12-18T17:40:20.765Z,94.45
2022-12-18T17:42:48.871Z,94.45
2022-12-18T17:45:17.003Z,94.45
2022-12-18T17:47:45.160Z,94.49
2022-12-18T17:50:13.239Z,94.44
2022-12-18T17:52:42.823Z,94.49
2022-12-18T17:55:11.115Z,94.54
2022-12-18T17:57:39.255Z,94.55
2022-12-18T18:00:08.751Z,94.56
2022-12-18T18:02:36.886Z,94.57
2022-12-18T18:05:06.192Z,94.59
2022-12-18T18:07:34.918Z,94.56
2022-12-18T18:10:05.105Z,94.55
2022-12-18T18:12:51.093Z,94.57
2022-12-18T18:15:19.452Z,94.58
2022-12-18T18:17:48.670Z,94.57
2022-12-18T18:20:22.293Z,94.57
2022-12-18T18:22:50.751Z,94.56
2022-12-18T18:25:20.074Z,94.56
2022-12-18T18:27:49.099Z,94.54
2022-12-18T18:30:17.181Z,94.56
2022-12-18T18:32:47.589Z,94.51
2022-12-18T18:35:51.966Z,94.50
2022-12-18T18:38:04.617Z,94.47
2022-12-18T18:40:34.163Z,94.47
2022-12-18T18:43:02.256Z,94.45
2022-12-18T18:45:32.484Z,94.48
2022-12-18T18:48:00.594Z,94.45
2022-12-18T18:50:28.614Z,94.43
2022-12-18T18:52:56.835Z,94.45
2022-12-18T18:55:25.763Z,94.42
2022-12-18T18:57:55.343Z,94.43
2022-12-18T19:00:23.437Z,94.43
2022-12-18T19:02:54.117Z,94.44
2022-12-18T19:05:29.420Z,94.47
2022-12-18T19:07:57.436Z,94.47
2022-12-18T19:10:25.559Z,94.46
2022-12-18T19:13:12.685Z,94.42
2022-12-18T19:15:40.791Z,94.40
2022-12-18T19:18:08.998Z,94.41
2022-12-18T19:20:37.210Z,94.40
2022-12-18T19:23:05.229Z,94.34
2022-12-18T19:25:38.605Z,94.30
2022-12-18T19:28:21.620Z,94.27
2022-12-18T19:30:56.405Z,94.24
2022-12-18T19:33:44.379Z,94.23
2022-12-18T19:36:15.718Z,94.17
2022-12-18T19:38:45.273Z,94.12
2022-12-18T19:41:14.136Z,94.09
2022-12-18T19:43:44.687Z,94.02
2022-12-18T19:46:15.303Z,94.01
2022-12-18T19:48:45.038Z,93.97
2022-12-18T19:51:16.653Z,93.94
2022-12-18T19:53:44.995Z,93.94
2022-12-18T19:56:15.245Z,93.89
2022-12-18T19:58:45.507Z,93.85
2022-12-18T20:01:16.495Z,93.81
2022-12-18T20:03:48.004Z,93.77
2022-12-18T20:06:22.832Z,93.75
2022-12-18T20:08:52.389Z,93.75
2022-12-18T20:11:22.026Z,93.74
2022-12-18T20:13:51.658Z,93.67
2022-12-18T20:16:19.757Z,93.59
2022-12-18T20:18:48.021Z,93.55
2022-12-18T20:21:16.091Z,93.59
2022-12-18T20:23:44.989Z,93.54
2022-12-18T20:26:13.289Z,93.52
2022-12-18T20:28:42.278Z,93.55
2022-12-18T20:31:13.794Z,93.52
2022-12-18T20:33:42.964Z,93.48
2022-12-18T20:36:15.173Z,93.46
2022-12-18T20:38:44.753Z,93.40
2022-12-18T20:41:17.825Z,93.41
2022-12-18T20:43:46.254Z,93.35
2022-12-18T20:46:17.115Z,93.26
2022-12-18T20:48:46.086Z,93.27
2022-12-18T20:51:16.206Z,93.26
2022-12-18T20:53:45.215Z,93.15
2022-12-18T20:56:21.078Z,93.10
2022-12-18T20:58:50.030Z,93.07
2022-12-18T21:01:21.663Z,93.03
2022-12-18T21:03:50.107Z,92.98
2022-12-18T21:06:19.578Z,92.97
2022-12-18T21:08:47.600Z,92.92
2022-12-18T21:11:31.845Z,92.89
2022-12-18T21:13:59.873Z,92.90
2022-12-18T21:16:29.426Z,92.90
2022-12-18T21:18:57.487Z,92.89
2022-12-18T21:21:26.889Z,92.81
2022-12-18T21:23:55.681Z,92.78
2022-12-18T21:26:25.337Z,92.71
2022-12-18T21:28:54.955Z,92.72
2022-12-18T21:31:23.448Z,92.64
2022-12-18T21:33:54.103Z,92.62
2022-12-18T21:36:28.989Z,92.62
2022-12-18T21:38:57.706Z,92.57
2022-12-18T21:41:44.523Z,92.59
2022-12-18T21:44:14.083Z,92.49
2022-12-18T21:46:44.303Z,92.49
2022-12-18T21:49:14.488Z,92.42
2022-12-18T21:51:42.739Z,92.44
2022-12-18T21:54:10.786Z,92.39
2022-12-18T21:56:49.795Z,92.41
2022-12-18T21:59:19.630Z,92.41
2022-12-18T22:01:48.558Z,92.39
2022-12-18T22:04:19.319Z,92.36
2022-12-18T22:06:48.038Z,92.37
2022-12-18T22:09:18.048Z,92.40
2022-12-18T22:11:48.907Z,92.29
2022-12-18T22:14:23.394Z,92.25
2022-12-18T22:16:52.437Z,92.24
2022-12-18T22:19:22.846Z,92.21
2022-12-18T22:21:50.917Z,92.23
2022-12-18T22:24:21.399Z,92.23
2022-12-18T22:26:51.290Z,92.23
2022-12-18T22:29:38.378Z,92.18
2022-12-18T22:32:08.023Z,92.18
2022-12-18T22:34:39.527Z,92.12
2022-12-18T22:37:07.736Z,92.08
2022-12-18T22:39:35.682Z,92.07
2022-12-18T22:42:04.266Z,92.05
2022-12-18T22:44:32.268Z,92.09
2022-12-18T22:47:05.566Z,92.00
2022-12-18T22:49:35.890Z,92.06
2022-12-18T22:52:05.721Z,92.07
2022-12-18T22:54:33.769Z,92.06
2022-12-18T22:57:02.056Z,92.03
2022-12-18T22:59:31.269Z,92.05
2022-12-18T23:01:59.644Z,92.03
2022-12-18T23:04:32.173Z,92.01
2022-12-18T23:07:06.594Z,92.02
2022-12-18T23:09:34.878Z,92.06
2022-12-18T23:12:02.926Z,92.06
2022-12-18T23:14:31.261Z,92.05
2022-12-18T23:16:59.284Z,92.04
2022-12-18T23:19:27.301Z,92.07
2022-12-18T23:21:58.205Z,92.00
2022-12-18T23:24:27.658Z,91.99
2022-12-18T23:26:58.935Z,92.09
2022-12-18T23:29:27.026Z,92.05
2022-12-18T23:31:55.062Z,92.01
2022-12-18T23:34:23.081Z,92.02
2022-12-18T23:36:56.023Z,91.93
2022-12-18T23:39:29.850Z,91.95
2022-12-18T23:41:59.779Z,91.92
2022-12-18T23:44:27.849Z,91.92
2022-12-18T23:46:56.283Z,91.92
2022-12-18T23:49:24.435Z,91.76
2022-12-18T23:51:54.973Z,91.74
2022-12-18T23:54:32.965Z,91.73
2022-12-18T23:57:03.254Z,91.68
2022-12-18T23:59:31.253Z,91.64
